createdAt,value
2023-03-21T00:01:14.032Z,6.87
2023-03-21T00:04:18.482Z,7.35
2023-03-21T00:07:22.437Z,7.38
2023-03-21T00:10:39.034Z,6.05
2023-03-21T00:13:45.553Z,6.68
2023-03-21T00:16:53.342Z,5.78
2023-03-21T00:19:58.086Z,6.50
2023-03-21T00:23:05.354Z,6.75
2023-03-21T00:26:11.014Z,6.55
2023-03-21T00:32:19.745Z,6.53
2023-03-21T00:38:48.910Z,6.55
2023-03-21T00:41:52.879Z,6.10
2023-03-21T00:44:57.471Z,6.68
2023-03-21T00:48:02.027Z,7.00
2023-03-21T00:51:14.199Z,6.93
2023-03-21T00:54:19.199Z,6.28
2023-03-21T00:57:37.550Z,7.13
2023-03-21T01:00:43.690Z,6.15
2023-03-21T01:03:51.805Z,7.03
2023-03-21T01:06:59.213Z,7.18
2023-03-21T01:10:03.332Z,6.78
2023-03-21T01:13:07.630Z,6.57
2023-03-21T01:16:12.469Z,6.60
2023-03-21T01:19:50.334Z,7.35
2023-03-21T01:22:44.437Z,6.72
2023-03-21T01:25:50.430Z,10.45
2023-03-21T01:28:56.438Z,8.32
2023-03-21T01:32:00.816Z,7.93
2023-03-21T01:35:05.646Z,6.60
2023-03-21T01:38:10.927Z,7.13
2023-03-21T01:41:41.897Z,7.70
2023-03-21T01:45:02.483Z,7.18
2023-03-21T01:48:16.539Z,6.70
2023-03-21T01:51:29.309Z,6.85
2023-03-21T01:54:39.406Z,6.65
2023-03-21T01:58:05.395Z,7.45
2023-03-21T02:01:39.244Z,8.80
2023-03-21T02:04:51.592Z,8.50
2023-03-21T02:07:58.845Z,7.60
2023-03-21T02:11:05.063Z,8.57
2023-03-21T02:14:28.954Z,6.53
2023-03-21T02:18:40.129Z,7.20
2023-03-21T02:22:16.273Z,5.97
2023-03-21T02:25:46.168Z,7.20
2023-03-21T02:29:03.822Z,7.15
2023-03-21T02:32:34.964Z,7.00
2023-03-21T02:36:15.250Z,7.20
2023-03-21T02:39:31.479Z,8.15
2023-03-21T02:43:04.308Z,6.93
2023-03-21T02:46:33.531Z,6.53
2023-03-21T02:50:17.337Z,6.95
2023-03-21T02:53:24.658Z,6.68
2023-03-21T02:56:29.555Z,8.23
2023-03-21T02:59:44.372Z,7.78
2023-03-21T03:03:08.179Z,6.93
2023-03-21T03:06:30.399Z,8.02
2023-03-21T03:09:56.471Z,8.30
2023-03-21T03:13:26.665Z,9.27
2023-03-21T03:16:40.318Z,7.55
2023-03-21T03:20:19.991Z,8.23
2023-03-21T03:23:27.567Z,7.10
2023-03-21T03:26:41.113Z,7.95
2023-03-21T03:29:50.283Z,7.68
2023-03-21T03:33:04.294Z,8.55
2023-03-21T03:36:30.355Z,8.73
2023-03-21T03:39:47.306Z,7.43
2023-03-21T03:42:58.311Z,8.27
2023-03-21T03:46:18.871Z,7.45
2023-03-21T03:49:27.374Z,7.40
2023-03-21T03:52:42.056Z,7.95
2023-03-21T03:55:54.744Z,11.48
2023-03-21T03:58:59.737Z,7.07
2023-03-21T04:02:22.404Z,8.13
2023-03-21T04:05:28.277Z,8.57
2023-03-21T04:08:33.012Z,8.80
2023-03-21T04:11:37.950Z,7.43
2023-03-21T04:14:46.148Z,7.25
2023-03-21T04:17:55.328Z,8.13
2023-03-21T04:21:01.431Z,8.57
2023-03-21T04:24:08.336Z,11.82
2023-03-21T04:27:12.337Z,11.63
2023-03-21T04:30:20.581Z,15.52
2023-03-21T04:33:42.806Z,26.02
2023-03-21T04:36:47.531Z,8.60
2023-03-21T04:39:52.678Z,24.73
2023-03-21T04:42:58.394Z,18.05
2023-03-21T04:46:04.230Z,9.57
2023-03-21T04:49:09.178Z,8.68
2023-03-21T04:52:13.196Z,7.70
2023-03-21T04:55:17.689Z,9.90
2023-03-21T04:58:23.585Z,8.95
2023-03-21T05:01:31.320Z,7.40
2023-03-21T05:04:35.470Z,7.57
2023-03-21T05:07:41.065Z,8.00
2023-03-21T05:10:45.611Z,8.77
2023-03-21T05:13:50.076Z,8.03
2023-03-21T05:16:57.058Z,7.90
2023-03-21T05:20:01.722Z,8.27
2023-03-21T05:23:05.687Z,8.15
2023-03-21T05:26:10.823Z,9.55
2023-03-21T05:29:26.051Z,10.98
2023-03-21T05:32:38.026Z,9.73
2023-03-21T05:35:46.191Z,13.27
2023-03-21T05:38:52.208Z,10.57
2023-03-21T05:41:57.001Z,9.70
2023-03-21T05:45:02.078Z,9.45
2023-03-21T05:48:09.151Z,7.88
2023-03-21T05:51:28.844Z,7.75
2023-03-21T05:54:33.820Z,7.17
2023-03-21T05:57:41.717Z,7.95
2023-03-21T06:00:51.367Z,7.97
2023-03-21T06:04:06.109Z,7.97
2023-03-21T06:07:12.547Z,8.30
2023-03-21T06:10:18.576Z,8.10
2023-03-21T06:13:26.428Z,9.05
2023-03-21T06:16:32.989Z,9.77
2023-03-21T06:19:40.536Z,8.77
2023-03-21T06:22:49.236Z,8.93
2023-03-21T06:25:53.822Z,8.52
2023-03-21T06:29:03.743Z,8.63
2023-03-21T06:32:08.487Z,8.55
2023-03-21T06:35:13.301Z,8.18
2023-03-21T06:38:17.652Z,6.72
2023-03-21T06:41:22.315Z,7.68
2023-03-21T06:44:34.920Z,7.25
2023-03-21T06:47:44.158Z,7.72
2023-03-21T06:51:02.444Z,6.68
2023-03-21T06:54:12.908Z,8.18
2023-03-21T06:57:23.695Z,7.35
2023-03-21T07:00:28.538Z,7.65
2023-03-21T07:03:33.800Z,7.57
2023-03-21T07:06:39.364Z,8.00
2023-03-21T07:09:44.039Z,10.50
2023-03-21T07:12:48.482Z,8.27
2023-03-21T07:16:10.887Z,8.68
2023-03-21T07:19:16.575Z,8.45
2023-03-21T07:25:25.310Z,8.35
2023-03-21T07:28:31.673Z,7.95
2023-03-21T07:31:36.550Z,7.30
2023-03-21T07:34:41.032Z,8.02
2023-03-21T07:40:53.633Z,13.27
2023-03-21T07:43:58.790Z,12.68
2023-03-21T07:47:10.383Z,8.88
2023-03-21T07:50:15.916Z,10.20
2023-03-21T07:53:21.656Z,9.80
2023-03-21T07:56:25.468Z,10.18
2023-03-21T07:59:29.740Z,11.13
2023-03-21T08:02:34.334Z,10.93
2023-03-21T08:05:39.755Z,8.32
2023-03-21T08:08:44.409Z,9.10
2023-03-21T08:11:48.825Z,25.08
2023-03-21T08:14:53.476Z,34.65
2023-03-21T08:17:59.675Z,15.90
2023-03-21T08:21:04.284Z,10.75
2023-03-21T08:24:09.328Z,8.03
2023-03-21T08:27:13.968Z,8.13
2023-03-21T08:30:22.064Z,7.90
2023-03-21T08:33:26.453Z,8.68
2023-03-21T08:36:32.404Z,9.25
2023-03-21T08:39:36.756Z,39.85
2023-03-21T08:42:42.527Z,10.27
2023-03-21T08:48:51.088Z,35.50
2023-03-21T08:51:59.117Z,27.88
2023-03-21T08:55:03.712Z,74.22
2023-03-21T08:58:08.369Z,161.15
2023-03-21T09:01:16.485Z,101.18
2023-03-21T09:04:21.377Z,63.17
2023-03-21T09:07:27.211Z,54.63
2023-03-21T09:10:31.957Z,135.77
2023-03-21T09:13:36.389Z,75.82
2023-03-21T09:16:42.109Z,98.88
2023-03-21T09:22:53.547Z,62.53
2023-03-21T09:29:04.541Z,11.13
2023-03-21T09:32:09.276Z,8.30
2023-03-21T09:35:13.862Z,8.77
2023-03-21T09:38:18.513Z,11.77
2023-03-21T09:41:42.035Z,12.18
2023-03-21T09:45:02.568Z,14.73
2023-03-21T09:48:18.376Z,16.20
2023-03-21T09:51:25.094Z,8.23
2023-03-21T09:54:34.672Z,13.35
2023-03-21T09:57:45.457Z,10.93
2023-03-21T10:00:57.474Z,17.40
2023-03-21T10:04:06.310Z,15.20
2023-03-21T10:07:18.888Z,42.78
2023-03-21T10:10:33.848Z,16.10
2023-03-21T10:14:12.913Z,12.13
2023-03-21T10:17:44.353Z,13.02
2023-03-21T10:20:48.840Z,16.70
2023-03-21T10:23:56.175Z,12.88
2023-03-21T10:27:01.886Z,20.50
2023-03-21T10:33:16.665Z,21.13
2023-03-21T10:36:33.903Z,19.67
2023-03-21T10:39:40.444Z,9.27
2023-03-21T10:42:45.660Z,11.50
2023-03-21T10:45:50.702Z,10.10
2023-03-21T10:48:55.641Z,8.45
2023-03-21T10:52:04.124Z,8.23
2023-03-21T10:55:27.200Z,9.00
2023-03-21T10:58:36.464Z,27.45
2023-03-21T11:01:44.373Z,28.42
2023-03-21T11:04:49.895Z,18.88
2023-03-21T11:08:16.421Z,23.67
2023-03-21T11:14:44.758Z,16.98
2023-03-21T11:17:49.425Z,24.25
2023-03-21T11:20:59.723Z,17.42
2023-03-21T11:24:05.259Z,17.42
2023-03-21T11:30:23.465Z,26.02
2023-03-21T11:33:54.411Z,33.58
2023-03-21T11:37:04.796Z,24.17
2023-03-21T11:40:25.455Z,36.63
2023-03-21T11:43:39.882Z,100.57
2023-03-21T11:46:45.149Z,61.08
2023-03-21T11:53:28.844Z,35.95
2023-03-21T11:56:48.399Z,34.97
2023-03-21T11:59:58.933Z,26.08
2023-03-21T12:03:47.728Z,28.90
2023-03-21T12:07:01.959Z,14.25
2023-03-21T12:10:12.575Z,22.58
2023-03-21T12:13:46.112Z,21.00
2023-03-21T12:17:05.742Z,20.20
2023-03-21T12:20:15.584Z,13.40
2023-03-21T12:23:39.410Z,15.35
2023-03-21T12:27:36.193Z,42.00
2023-03-21T12:30:46.238Z,19.47
2023-03-21T12:34:28.681Z,12.45
2023-03-21T12:38:10.014Z,14.95
2023-03-21T12:41:28.140Z,14.63
2023-03-21T12:44:40.412Z,14.52
2023-03-21T12:47:51.780Z,13.18
2023-03-21T12:51:01.892Z,12.55
2023-03-21T12:54:13.277Z,140.63
2023-03-21T12:57:51.058Z,108.50
2023-03-21T13:01:05.653Z,20.35
2023-03-21T13:04:43.703Z,13.70
2023-03-21T13:07:55.141Z,25.83
2023-03-21T13:11:01.270Z,24.48
2023-03-21T13:14:24.218Z,93.32
2023-03-21T13:17:47.567Z,168.25
2023-03-21T13:20:57.200Z,49.42
2023-03-21T13:24:26.786Z,49.08
2023-03-21T13:27:40.811Z,44.80
2023-03-21T13:30:45.613Z,35.45
2023-03-21T13:33:52.635Z,95.78
2023-03-21T13:36:58.772Z,92.43
2023-03-21T13:40:13.762Z,97.20
2023-03-21T13:43:55.580Z,49.53
2023-03-21T13:47:24.151Z,47.42
2023-03-21T13:50:34.830Z,45.72
2023-03-21T13:54:10.035Z,68.25
2023-03-21T13:57:24.336Z,82.35
2023-03-21T14:00:31.283Z,73.95
2023-03-21T14:03:37.060Z,86.72
2023-03-21T14:09:53.136Z,50.65
2023-03-21T14:12:59.635Z,89.75
2023-03-21T14:16:16.997Z,46.75
2023-03-21T14:19:21.644Z,43.65
2023-03-21T14:22:25.734Z,15.80
2023-03-21T14:25:44.377Z,15.25
2023-03-21T14:28:53.227Z,19.60
2023-03-21T14:31:59.191Z,16.75
2023-03-21T14:38:09.822Z,13.35
2023-03-21T14:41:29.602Z,11.27
2023-03-21T14:44:56.505Z,12.50
2023-03-21T14:48:02.852Z,12.52
2023-03-21T14:51:11.811Z,15.43
2023-03-21T14:54:18.623Z,19.30
2023-03-21T14:57:28.218Z,17.88
2023-03-21T15:00:34.101Z,21.52
2023-03-21T15:07:02.890Z,17.08
2023-03-21T15:10:18.795Z,23.58
2023-03-21T15:13:27.732Z,19.90
2023-03-21T15:16:33.211Z,18.08
2023-03-21T15:19:41.083Z,21.98
2023-03-21T15:22:57.825Z,16.02
2023-03-21T15:26:05.806Z,15.65
2023-03-21T15:29:10.783Z,16.10
2023-03-21T15:32:18.908Z,15.77
2023-03-21T15:35:29.043Z,24.98
2023-03-21T15:38:45.818Z,15.00
2023-03-21T15:42:05.165Z,16.95
2023-03-21T15:45:23.831Z,18.38
2023-03-21T15:48:30.037Z,20.63
2023-03-21T15:51:34.553Z,13.95
2023-03-21T15:54:56.488Z,14.82
2023-03-21T15:58:06.033Z,26.02
2023-03-21T16:01:21.793Z,24.10
2023-03-21T16:04:27.577Z,15.70
2023-03-21T16:10:39.916Z,18.98
2023-03-21T16:13:44.934Z,13.70
2023-03-21T16:16:50.838Z,16.08
2023-03-21T16:19:56.218Z,19.15
2023-03-21T16:23:00.821Z,16.17
2023-03-21T16:26:06.017Z,17.23
2023-03-21T16:29:14.542Z,76.13
2023-03-21T16:32:19.395Z,38.70
2023-03-21T16:35:25.810Z,28.60
2023-03-21T16:38:30.580Z,20.40
2023-03-21T16:41:34.958Z,18.80
2023-03-21T16:44:40.331Z,19.10
2023-03-21T16:47:45.569Z,16.83
2023-03-21T16:50:50.361Z,17.05
2023-03-21T16:53:55.100Z,19.85
2023-03-21T16:57:00.358Z,18.90
2023-03-21T17:00:08.269Z,15.82
2023-03-21T17:03:22.342Z,15.55
2023-03-21T17:06:30.043Z,21.05
2023-03-21T17:09:34.468Z,14.95
2023-03-21T17:12:38.460Z,15.38
2023-03-21T17:15:43.140Z,15.32
2023-03-21T17:18:48.603Z,19.38
2023-03-21T17:21:53.320Z,19.23
2023-03-21T17:24:57.343Z,19.33
2023-03-21T17:28:01.612Z,16.33
2023-03-21T17:31:13.195Z,14.45
2023-03-21T17:34:18.076Z,13.43
2023-03-21T17:37:22.890Z,12.50
2023-03-21T17:40:30.483Z,14.02
2023-03-21T17:43:34.422Z,13.68
2023-03-21T17:46:38.889Z,14.93
2023-03-21T17:49:43.619Z,14.75
2023-03-21T17:52:50.571Z,14.88
2023-03-21T17:55:54.990Z,16.20
2023-03-21T17:59:00.784Z,15.60
2023-03-21T18:02:04.894Z,14.80
2023-03-21T18:05:10.515Z,15.00
2023-03-21T18:11:19.763Z,15.00
2023-03-21T18:14:27.862Z,14.70
2023-03-21T18:17:33.369Z,15.13
2023-03-21T18:20:51.648Z,14.77
2023-03-21T18:23:57.471Z,15.48
2023-03-21T18:27:01.734Z,16.48
2023-03-21T18:30:36.205Z,16.38
2023-03-21T18:33:36.449Z,17.98
2023-03-21T18:36:41.119Z,18.33
2023-03-21T18:39:46.387Z,17.63
2023-03-21T18:43:44.147Z,20.35
2023-03-21T18:46:16.536Z,19.85
2023-03-21T18:50:02.114Z,18.30
2023-03-21T18:52:45.948Z,19.02
2023-03-21T18:55:52.419Z,19.63
2023-03-21T18:58:57.054Z,19.05
2023-03-21T19:02:02.567Z,19.73
2023-03-21T19:05:07.814Z,22.08
2023-03-21T19:08:12.513Z,19.33
2023-03-21T19:11:21.975Z,18.63
2023-03-21T19:14:26.013Z,21.70
2023-03-21T19:20:55.496Z,21.13
2023-03-21T19:24:25.007Z,21.47
2023-03-21T19:27:24.545Z,21.05
2023-03-21T19:30:28.902Z,22.52
2023-03-21T19:33:33.375Z,22.55
2023-03-21T19:36:38.089Z,22.52
2023-03-21T19:39:42.561Z,20.83
2023-03-21T19:42:46.720Z,22.60
2023-03-21T19:45:51.166Z,20.42
2023-03-21T19:48:56.887Z,20.02
2023-03-21T19:52:01.596Z,22.08
2023-03-21T19:55:07.054Z,23.00
2023-03-21T19:58:12.273Z,22.48
2023-03-21T20:01:17.830Z,25.20
2023-03-21T20:04:23.213Z,24.77
2023-03-21T20:07:28.569Z,21.05
2023-03-21T20:10:32.980Z,23.10
2023-03-21T20:13:40.038Z,22.08
2023-03-21T20:16:47.571Z,24.48
2023-03-21T20:19:52.068Z,22.27
2023-03-21T20:23:07.044Z,25.05
2023-03-21T20:26:14.174Z,20.95
2023-03-21T20:32:44.880Z,24.42
2023-03-21T20:39:23.311Z,24.42
2023-03-21T20:42:28.610Z,22.10
2023-03-21T20:45:34.476Z,24.08
2023-03-21T20:48:40.530Z,22.98
2023-03-21T20:52:44.561Z,23.13
2023-03-21T20:55:12.300Z,25.27
2023-03-21T20:58:51.635Z,25.70
2023-03-21T21:01:46.015Z,23.77
2023-03-21T21:05:21.611Z,24.23
2023-03-21T21:08:17.291Z,23.00
2023-03-21T21:12:05.023Z,23.77
2023-03-21T21:14:44.945Z,20.80
2023-03-21T21:18:07.086Z,24.08
2023-03-21T21:21:12.225Z,23.38
2023-03-21T21:24:17.063Z,23.13
2023-03-21T21:27:21.534Z,23.10
2023-03-21T21:30:26.157Z,23.77
2023-03-21T21:33:30.643Z,24.60
2023-03-21T21:36:35.006Z,24.33
2023-03-21T21:39:39.352Z,23.33
2023-03-21T21:42:45.114Z,25.20
2023-03-21T21:45:51.083Z,25.67
2023-03-21T21:48:55.613Z,24.67
2023-03-21T21:52:00.648Z,23.48
2023-03-21T21:55:07.248Z,22.60
2023-03-21T21:58:14.332Z,23.10
2023-03-21T22:01:18.269Z,21.77
2023-03-21T22:04:28.618Z,20.83
2023-03-21T22:07:33.285Z,22.80
2023-03-21T22:10:37.347Z,23.35
2023-03-21T22:13:41.916Z,24.55
2023-03-21T22:16:47.576Z,24.08
2023-03-21T22:20:04.679Z,25.13
2023-03-21T22:23:10.487Z,23.20
2023-03-21T22:26:15.394Z,23.85
2023-03-21T22:29:20.010Z,24.40
2023-03-21T22:32:24.913Z,25.23
2023-03-21T22:35:29.484Z,24.67
2023-03-21T22:38:35.354Z,25.52
2023-03-21T22:44:43.650Z,24.85
2023-03-21T22:47:48.142Z,24.55
2023-03-21T22:50:52.566Z,21.42
2023-03-21T22:53:57.380Z,23.10
2023-03-21T22:57:01.929Z,21.00
2023-03-21T23:00:14.011Z,22.13
2023-03-21T23:03:18.136Z,21.83
2023-03-21T23:06:23.177Z,22.05
2023-03-21T23:09:28.128Z,23.08
2023-03-21T23:12:32.620Z,20.65
2023-03-21T23:15:36.542Z,20.10
2023-03-21T23:18:40.794Z,22.10
2023-03-21T23:21:45.333Z,21.85
2023-03-21T23:24:50.096Z,25.90
2023-03-21T23:27:54.362Z,24.60
2023-03-21T23:30:58.736Z,23.17
2023-03-21T23:34:03.710Z,23.50
2023-03-21T23:37:08.174Z,21.40
2023-03-21T23:40:13.375Z,22.00
2023-03-21T23:43:17.852Z,23.15
2023-03-21T23:46:22.580Z,23.10
2023-03-21T23:49:27.304Z,20.48
2023-03-21T23:52:31.627Z,21.50
2023-03-21T23:55:38.840Z,22.80
2023-03-21T23:58:42.658Z,20.58
